createdAt,value
2023-05-19T00:01:20.322Z,36.50
2023-05-19T00:03:53.905Z,36.50
2023-05-19T00:06:25.568Z,36.50
2023-05-19T00:08:58.316Z,36.50
2023-05-19T00:11:26.956Z,36.50
2023-05-19T00:13:55.474Z,36.40
2023-05-19T00:16:24.313Z,36.40
2023-05-19T00:18:51.835Z,36.40
2023-05-19T00:21:19.242Z,36.40
2023-05-19T00:23:46.300Z,36.30
2023-05-19T00:26:13.310Z,36.40
2023-05-19T00:28:40.263Z,36.30
2023-05-19T00:31:07.307Z,36.20
2023-05-19T00:33:34.459Z,36.20
2023-05-19T00:36:03.465Z,36.20
2023-05-19T00:38:36.116Z,36.20
2023-05-19T00:41:04.356Z,36.20
2023-05-19T00:43:31.908Z,36.30
2023-05-19T00:45:58.797Z,36.30
2023-05-19T00:48:26.184Z,36.30
2023-05-19T00:51:02.150Z,36.20
2023-05-19T00:53:31.012Z,36.20
2023-05-19T00:56:01.377Z,36.70
2023-05-19T00:58:30.326Z,36.30
2023-05-19T01:01:04.202Z,36.30
2023-05-19T01:03:35.141Z,36.40
2023-05-19T01:06:07.416Z,36.40
2023-05-19T01:08:36.342Z,36.50
2023-05-19T01:11:04.087Z,36.50
2023-05-19T01:13:31.883Z,36.60
2023-05-19T01:16:07.032Z,36.60
2023-05-19T01:18:56.336Z,36.70
2023-05-19T01:21:36.573Z,36.70
2023-05-19T01:24:23.987Z,36.70
2023-05-19T01:26:50.910Z,36.60
2023-05-19T01:29:29.988Z,36.60
2023-05-19T01:32:00.182Z,36.60
2023-05-19T01:34:31.037Z,36.50
2023-05-19T01:37:00.990Z,36.60
2023-05-19T01:39:28.587Z,36.50
2023-05-19T01:41:56.948Z,36.50
2023-05-19T01:44:24.168Z,36.50
2023-05-19T01:46:51.777Z,36.40
2023-05-19T01:49:18.739Z,36.40
2023-05-19T01:51:45.832Z,36.40
2023-05-19T01:54:12.761Z,36.40
2023-05-19T01:57:08.805Z,36.50
2023-05-19T01:59:57.622Z,36.60
2023-05-19T02:02:38.634Z,36.50
2023-05-19T02:05:29.383Z,36.50
2023-05-19T02:08:06.476Z,36.50
2023-05-19T02:10:37.132Z,36.70
2023-05-19T02:13:06.366Z,36.70
2023-05-19T02:15:42.377Z,36.80
2023-05-19T02:18:11.829Z,36.80
2023-05-19T02:20:39.961Z,36.80
2023-05-19T02:23:07.101Z,36.90
2023-05-19T02:25:34.098Z,37.00
2023-05-19T02:28:01.018Z,37.10
2023-05-19T02:30:27.949Z,37.10
2023-05-19T02:32:55.446Z,37.10
2023-05-19T02:35:22.659Z,37.30
2023-05-19T02:37:49.707Z,37.40
2023-05-19T02:40:18.244Z,37.50
2023-05-19T02:42:45.127Z,37.60
2023-05-19T02:45:12.124Z,37.60
2023-05-19T02:47:39.087Z,37.60
2023-05-19T02:50:06.600Z,37.60
2023-05-19T02:52:33.715Z,37.50
2023-05-19T02:55:00.771Z,37.50
2023-05-19T02:57:29.232Z,37.40
2023-05-19T02:59:56.259Z,37.40
2023-05-19T03:02:23.215Z,37.30
2023-05-19T03:04:50.124Z,37.20
2023-05-19T03:07:17.002Z,37.20
2023-05-19T03:09:43.938Z,37.20
2023-05-19T03:12:10.842Z,37.20
2023-05-19T03:14:38.584Z,37.20
2023-05-19T03:17:08.203Z,37.20
2023-05-19T03:19:35.307Z,37.30
2023-05-19T03:22:02.254Z,37.30
2023-05-19T03:24:29.353Z,37.40
2023-05-19T03:26:56.373Z,37.50
2023-05-19T03:29:23.572Z,37.60
2023-05-19T03:31:52.009Z,37.60
2023-05-19T03:34:19.034Z,37.80
2023-05-19T03:36:46.037Z,37.80
2023-05-19T03:39:12.935Z,37.80
2023-05-19T03:41:39.803Z,37.90
2023-05-19T03:44:06.907Z,37.90
2023-05-19T03:46:33.894Z,37.80
2023-05-19T03:49:00.811Z,37.90
2023-05-19T03:51:28.665Z,37.90
2023-05-19T03:53:55.942Z,37.90
2023-05-19T03:56:25.085Z,38.20
2023-05-19T03:58:51.940Z,38.30
2023-05-19T04:01:18.944Z,38.40
2023-05-19T04:03:46.531Z,38.40
2023-05-19T04:06:13.511Z,38.40
2023-05-19T04:08:40.520Z,38.40
2023-05-19T04:11:07.493Z,38.40
2023-05-19T04:13:34.805Z,38.40
2023-05-19T04:16:02.223Z,38.40
2023-05-19T04:18:29.529Z,38.30
2023-05-19T04:20:56.507Z,38.20
2023-05-19T04:23:23.550Z,38.10
2023-05-19T04:25:50.545Z,38.10
2023-05-19T04:28:18.066Z,38.20
2023-05-19T04:30:46.720Z,38.40
2023-05-19T04:33:13.865Z,38.60
2023-05-19T04:35:40.914Z,38.60
2023-05-19T04:38:07.871Z,38.70
2023-05-19T04:40:34.859Z,38.80
2023-05-19T04:43:02.365Z,38.80
2023-05-19T04:45:30.138Z,38.80
2023-05-19T04:47:58.180Z,38.90
2023-05-19T04:50:25.274Z,39.00
2023-05-19T04:52:52.135Z,39.00
2023-05-19T04:55:19.676Z,39.10
2023-05-19T04:57:47.020Z,39.20
2023-05-19T05:00:14.794Z,39.20
2023-05-19T05:02:42.938Z,39.00
2023-05-19T05:05:10.170Z,38.90
2023-05-19T05:07:37.086Z,38.80
2023-05-19T05:10:04.491Z,38.70
2023-05-19T05:12:32.978Z,38.50
2023-05-19T05:15:00.384Z,38.30
2023-05-19T05:17:28.274Z,38.10
2023-05-19T05:19:55.561Z,38.10
2023-05-19T05:22:22.790Z,37.90
2023-05-19T05:24:49.944Z,37.80
2023-05-19T05:27:16.828Z,37.70
2023-05-19T05:29:43.837Z,37.60
2023-05-19T05:32:10.715Z,38.30
2023-05-19T05:34:39.733Z,38.20
2023-05-19T05:37:06.900Z,37.60
2023-05-19T05:39:33.848Z,37.60
2023-05-19T05:42:01.033Z,37.70
2023-05-19T05:44:27.895Z,37.80
2023-05-19T05:46:55.213Z,37.90
2023-05-19T05:49:22.387Z,37.90
2023-05-19T05:52:01.837Z,37.90
2023-05-19T05:54:31.955Z,38.00
2023-05-19T05:56:59.073Z,38.00
2023-05-19T05:59:25.937Z,38.00
2023-05-19T06:01:52.821Z,38.00
2023-05-19T06:04:21.150Z,37.90
2023-05-19T06:06:48.180Z,37.90
2023-05-19T06:09:15.113Z,37.90
2023-05-19T06:11:41.980Z,37.90
2023-05-19T06:14:08.860Z,37.90
2023-05-19T06:16:35.870Z,37.80
2023-05-19T06:19:02.880Z,37.90
2023-05-19T06:21:29.910Z,37.90
2023-05-19T06:23:57.528Z,38.00
2023-05-19T06:26:24.424Z,38.00
2023-05-19T06:28:51.401Z,38.10
2023-05-19T06:31:18.365Z,38.20
2023-05-19T06:33:45.250Z,38.40
2023-05-19T06:36:12.191Z,38.50
2023-05-19T06:38:39.076Z,38.50
2023-05-19T06:41:07.145Z,38.50
2023-05-19T06:43:34.015Z,38.50
2023-05-19T06:46:00.988Z,38.60
2023-05-19T06:48:27.899Z,38.60
2023-05-19T06:50:54.935Z,38.50
2023-05-19T06:53:22.104Z,38.50
2023-05-19T06:55:59.535Z,38.40
2023-05-19T06:58:27.857Z,38.30
2023-05-19T07:00:54.820Z,38.20
2023-05-19T07:03:21.753Z,38.20
2023-05-19T07:05:48.801Z,38.10
2023-05-19T07:08:15.811Z,38.10
2023-05-19T07:10:42.666Z,38.10
2023-05-19T07:13:09.542Z,38.10
2023-05-19T07:15:36.435Z,38.20
2023-05-19T07:18:03.439Z,38.30
2023-05-19T07:20:30.539Z,38.30
2023-05-19T07:22:57.634Z,38.40
2023-05-19T07:25:26.148Z,38.50
2023-05-19T07:27:53.216Z,38.50
2023-05-19T07:30:20.113Z,38.50
2023-05-19T07:32:47.096Z,38.50
2023-05-19T07:35:14.201Z,39.10
2023-05-19T07:37:41.533Z,38.40
2023-05-19T07:40:08.860Z,38.20
2023-05-19T07:42:35.957Z,38.10
2023-05-19T07:45:03.534Z,38.00
2023-05-19T07:47:31.873Z,38.00
2023-05-19T07:49:58.849Z,38.10
2023-05-19T07:52:25.955Z,38.10
2023-05-19T07:54:53.170Z,38.20
2023-05-19T07:57:20.123Z,38.30
2023-05-19T07:59:47.031Z,38.40
2023-05-19T08:02:13.984Z,38.50
2023-05-19T08:04:41.127Z,38.50
2023-05-19T08:07:08.134Z,38.70
2023-05-19T08:09:35.032Z,38.80
2023-05-19T08:12:02.071Z,39.00
2023-05-19T08:14:29.289Z,39.10
2023-05-19T08:16:56.331Z,39.20
2023-05-19T08:19:23.340Z,39.20
2023-05-19T08:21:50.326Z,39.20
2023-05-19T08:24:17.209Z,39.30
2023-05-19T08:26:44.617Z,39.30
2023-05-19T08:29:11.556Z,39.30
2023-05-19T08:31:38.547Z,39.30
2023-05-19T08:34:05.459Z,39.30
2023-05-19T08:36:33.918Z,39.40
2023-05-19T08:39:00.843Z,39.40
2023-05-19T08:41:27.704Z,39.50
2023-05-19T08:43:55.228Z,39.60
2023-05-19T08:46:24.846Z,39.60
2023-05-19T08:48:58.804Z,39.80
2023-05-19T08:52:02.376Z,39.80
2023-05-19T08:54:41.374Z,39.90
2023-05-19T08:57:09.012Z,40.00
2023-05-19T08:59:36.318Z,40.70
2023-05-19T09:02:05.107Z,39.90
2023-05-19T09:04:32.563Z,39.70
2023-05-19T09:07:03.966Z,39.50
2023-05-19T09:09:30.928Z,39.50
2023-05-19T09:11:58.296Z,39.50
2023-05-19T09:14:25.633Z,39.50
2023-05-19T09:16:53.081Z,39.50
2023-05-19T09:19:21.335Z,39.40
2023-05-19T09:22:00.003Z,39.50
2023-05-19T09:24:28.417Z,39.50
2023-05-19T09:27:00.239Z,39.20
2023-05-19T09:29:27.473Z,39.10
2023-05-19T09:32:01.657Z,39.10
2023-05-19T09:34:29.025Z,38.90
2023-05-19T09:36:57.830Z,39.00
2023-05-19T09:39:26.079Z,38.90
2023-05-19T09:41:54.291Z,38.80
2023-05-19T09:44:21.290Z,38.80
2023-05-19T09:46:50.420Z,38.60
2023-05-19T09:49:25.326Z,38.50
2023-05-19T09:52:00.005Z,38.50
2023-05-19T09:54:32.309Z,38.60
2023-05-19T09:57:00.978Z,38.70
2023-05-19T09:59:32.108Z,38.70
2023-05-19T10:02:02.129Z,38.80
2023-05-19T10:04:30.402Z,38.80
2023-05-19T10:07:05.427Z,38.90
2023-05-19T10:09:34.041Z,38.90
2023-05-19T10:12:02.136Z,39.10
2023-05-19T10:14:30.030Z,39.10
2023-05-19T10:16:59.646Z,39.20
2023-05-19T10:19:28.418Z,39.10
2023-05-19T10:21:56.260Z,39.30
2023-05-19T10:24:24.240Z,39.30
2023-05-19T10:27:03.961Z,39.50
2023-05-19T10:29:34.779Z,39.70
2023-05-19T10:32:08.222Z,39.80
2023-05-19T10:35:20.525Z,39.90
2023-05-19T10:38:10.541Z,40.00
2023-05-19T10:40:43.745Z,40.00
2023-05-19T10:43:54.454Z,40.00
2023-05-19T10:46:26.384Z,40.00
2023-05-19T10:48:54.536Z,39.90
2023-05-19T10:51:28.232Z,39.90
2023-05-19T10:53:55.210Z,40.10
2023-05-19T10:56:30.455Z,40.80
2023-05-19T10:58:57.455Z,40.20
2023-05-19T11:01:31.495Z,40.10
2023-05-19T11:04:04.248Z,40.20
2023-05-19T11:06:33.889Z,40.30
2023-05-19T11:09:15.207Z,40.40
2023-05-19T11:11:48.752Z,40.50
2023-05-19T11:14:24.019Z,40.60
2023-05-19T11:16:52.977Z,40.80
2023-05-19T11:19:33.116Z,40.90
2023-05-19T11:22:08.696Z,40.90
2023-05-19T11:24:53.315Z,40.70
2023-05-19T11:27:20.204Z,40.70
2023-05-19T11:29:48.522Z,40.70
2023-05-19T11:32:16.243Z,40.70
2023-05-19T11:34:44.805Z,40.80
2023-05-19T11:37:12.285Z,40.80
2023-05-19T11:39:40.324Z,40.80
2023-05-19T11:42:10.557Z,40.80
2023-05-19T11:44:38.586Z,40.90
2023-05-19T11:47:06.227Z,41.60
2023-05-19T11:49:33.284Z,40.90
2023-05-19T11:52:01.988Z,40.80
2023-05-19T11:54:34.834Z,40.80
2023-05-19T11:57:04.065Z,40.70
2023-05-19T11:59:37.752Z,40.80
2023-05-19T12:02:25.971Z,40.80
2023-05-19T12:04:53.812Z,40.90
2023-05-19T12:07:23.441Z,41.00
2023-05-19T12:09:53.025Z,41.20
2023-05-19T12:12:21.176Z,41.30
2023-05-19T12:14:50.437Z,41.30
2023-05-19T12:17:19.766Z,41.40
2023-05-19T12:19:51.001Z,41.50
2023-05-19T12:22:19.062Z,41.60
2023-05-19T12:24:47.314Z,41.60
2023-05-19T12:27:20.126Z,41.60
2023-05-19T12:29:54.989Z,41.70
2023-05-19T12:32:26.310Z,41.80
2023-05-19T12:34:55.562Z,41.80
2023-05-19T12:37:28.018Z,41.80
2023-05-19T12:39:56.329Z,41.80
2023-05-19T12:42:23.978Z,41.90
2023-05-19T12:44:52.493Z,42.00
2023-05-19T12:47:20.275Z,42.10
2023-05-19T12:50:08.572Z,42.10
2023-05-19T12:52:42.908Z,42.10
2023-05-19T12:55:11.922Z,42.10
2023-05-19T12:57:42.259Z,42.20
2023-05-19T13:00:12.661Z,42.20
2023-05-19T13:03:00.407Z,42.20
2023-05-19T13:05:38.905Z,42.10
2023-05-19T13:08:08.168Z,42.10
2023-05-19T13:10:36.775Z,42.10
2023-05-19T13:13:04.483Z,42.10
2023-05-19T13:15:36.483Z,42.00
2023-05-19T13:18:06.239Z,41.90
2023-05-19T13:20:33.627Z,41.90
2023-05-19T13:23:00.981Z,41.90
2023-05-19T13:25:28.266Z,42.00
2023-05-19T13:27:55.180Z,42.20
2023-05-19T13:30:22.721Z,42.30
2023-05-19T13:32:49.792Z,42.40
2023-05-19T13:35:16.868Z,42.30
2023-05-19T13:37:43.779Z,42.30
2023-05-19T13:40:11.250Z,43.20
2023-05-19T13:42:38.380Z,42.50
2023-05-19T13:45:05.727Z,42.60
2023-05-19T13:47:32.984Z,42.70
2023-05-19T13:49:59.912Z,42.70
2023-05-19T13:52:28.352Z,42.80
2023-05-19T13:54:57.667Z,42.70
2023-05-19T13:57:26.271Z,42.70
2023-05-19T14:00:02.639Z,43.50
2023-05-19T14:02:33.809Z,43.50
2023-05-19T14:05:00.884Z,42.90
2023-05-19T14:07:28.310Z,42.90
2023-05-19T14:09:55.343Z,42.80
2023-05-19T14:12:25.568Z,42.80
2023-05-19T14:14:58.774Z,42.80
2023-05-19T14:17:27.573Z,42.90
2023-05-19T14:19:54.592Z,42.90
2023-05-19T14:22:21.605Z,43.00
2023-05-19T14:24:48.512Z,43.00
2023-05-19T14:27:15.902Z,43.00
2023-05-19T14:29:43.064Z,43.10
2023-05-19T14:32:10.036Z,43.00
2023-05-19T14:34:37.184Z,43.10
2023-05-19T14:37:04.248Z,43.00
2023-05-19T14:39:31.435Z,43.00
2023-05-19T14:41:59.648Z,43.00
2023-05-19T14:44:31.743Z,43.10
2023-05-19T14:47:00.550Z,43.10
2023-05-19T14:49:35.991Z,43.10
2023-05-19T14:52:15.705Z,43.00
2023-05-19T14:54:42.847Z,43.10
2023-05-19T14:57:09.734Z,43.30
2023-05-19T14:59:39.753Z,44.10
2023-05-19T15:02:07.120Z,43.50
2023-05-19T15:04:33.989Z,43.70
2023-05-19T15:09:30.710Z,44.00
2023-05-19T15:11:58.051Z,44.10
2023-05-19T15:14:27.811Z,44.20
2023-05-19T15:16:54.889Z,44.30
2023-05-19T15:19:21.948Z,44.40
2023-05-19T15:21:50.592Z,44.40
2023-05-19T15:24:17.521Z,44.40
2023-05-19T15:26:44.483Z,44.40
2023-05-19T15:29:11.390Z,44.40
2023-05-19T15:31:38.622Z,44.40
2023-05-19T15:34:05.578Z,44.40
2023-05-19T15:36:32.579Z,44.40
2023-05-19T15:38:59.452Z,44.40
2023-05-19T15:41:26.753Z,44.40
2023-05-19T15:43:53.702Z,44.40
2023-05-19T15:46:20.777Z,44.40
2023-05-19T15:48:47.749Z,44.40
2023-05-19T15:51:14.796Z,44.30
2023-05-19T15:53:41.672Z,44.30
2023-05-19T15:56:08.645Z,44.20
2023-05-19T15:58:35.562Z,44.30
2023-05-19T16:01:03.061Z,44.40
2023-05-19T16:03:30.194Z,44.40
2023-05-19T16:05:57.709Z,44.40
2023-05-19T16:08:25.176Z,44.40
2023-05-19T16:10:52.050Z,44.40
2023-05-19T16:13:18.940Z,44.40
2023-05-19T16:15:45.787Z,44.40
2023-05-19T16:18:13.356Z,44.40
2023-05-19T16:20:40.339Z,44.50
2023-05-19T16:23:07.335Z,44.40
2023-05-19T16:25:34.206Z,44.50
2023-05-19T16:28:01.309Z,44.60
2023-05-19T16:30:28.391Z,44.70
2023-05-19T16:32:55.423Z,44.70
2023-05-19T16:35:22.647Z,44.70
2023-05-19T16:37:49.664Z,44.70
2023-05-19T16:40:16.575Z,44.70
2023-05-19T16:42:43.467Z,44.80
2023-05-19T16:45:10.662Z,44.70
2023-05-19T16:47:37.706Z,44.80
2023-05-19T16:50:04.942Z,44.90
2023-05-19T16:52:31.889Z,45.00
2023-05-19T16:54:59.163Z,45.00
2023-05-19T16:57:26.636Z,45.10
2023-05-19T16:59:54.834Z,45.20
2023-05-19T17:02:21.834Z,45.20
2023-05-19T17:04:48.996Z,45.20
2023-05-19T17:07:16.012Z,45.20
2023-05-19T17:09:43.987Z,46.00
2023-05-19T17:12:11.184Z,45.40
2023-05-19T17:14:38.307Z,45.40
2023-05-19T17:17:05.545Z,45.60
2023-05-19T17:19:32.463Z,45.50
2023-05-19T17:21:59.587Z,45.60
2023-05-19T17:24:28.884Z,45.60
2023-05-19T17:26:55.839Z,45.70
2023-05-19T17:29:22.997Z,45.80
2023-05-19T17:31:49.962Z,46.60
2023-05-19T17:34:16.900Z,46.00
2023-05-19T17:36:43.787Z,46.00
2023-05-19T17:39:10.751Z,46.10
2023-05-19T17:41:37.791Z,46.10
2023-05-19T17:44:06.784Z,46.10
2023-05-19T17:46:39.314Z,46.20
2023-05-19T17:49:06.697Z,46.30
2023-05-19T17:51:34.081Z,46.30
2023-05-19T17:54:01.446Z,46.40
2023-05-19T17:56:32.403Z,46.40
2023-05-19T17:58:59.683Z,46.40
2023-05-19T18:01:26.794Z,46.40
2023-05-19T18:03:53.937Z,46.40
2023-05-19T18:06:21.121Z,46.50
2023-05-19T18:08:50.630Z,46.40
2023-05-19T18:11:18.868Z,46.40
2023-05-19T18:13:45.975Z,46.40
2023-05-19T18:16:13.326Z,46.50
2023-05-19T18:18:43.579Z,46.40
2023-05-19T18:21:17.648Z,46.40
2023-05-19T18:23:45.685Z,46.50
2023-05-19T18:26:13.344Z,46.50
2023-05-19T18:28:41.248Z,46.50
2023-05-19T18:31:17.308Z,46.60
2023-05-19T18:33:45.342Z,46.60
2023-05-19T18:36:13.579Z,46.60
2023-05-19T18:38:41.154Z,46.60
2023-05-19T18:41:09.280Z,46.60
2023-05-19T18:43:36.242Z,46.60
2023-05-19T18:46:03.147Z,46.60
2023-05-19T18:48:30.170Z,46.60
2023-05-19T18:50:57.226Z,46.60
2023-05-19T18:53:24.275Z,46.60
2023-05-19T18:55:51.249Z,46.60
2023-05-19T18:58:18.701Z,46.70
2023-05-19T19:00:45.770Z,46.80
2023-05-19T19:03:12.870Z,46.90
2023-05-19T19:05:40.136Z,47.00
2023-05-19T19:08:07.070Z,47.10
2023-05-19T19:10:38.870Z,47.10
2023-05-19T19:13:06.290Z,47.20
2023-05-19T19:15:33.467Z,47.20
2023-05-19T19:18:00.528Z,47.10
2023-05-19T19:20:27.535Z,47.20
2023-05-19T19:22:54.586Z,47.20
2023-05-19T19:25:23.542Z,47.40
2023-05-19T19:27:50.860Z,47.30
2023-05-19T19:30:17.834Z,47.40
2023-05-19T19:32:44.829Z,47.50
2023-05-19T19:35:11.898Z,47.60
2023-05-19T19:37:38.829Z,47.70
2023-05-19T19:40:06.701Z,47.70
2023-05-19T19:42:34.102Z,47.80
2023-05-19T19:45:01.078Z,47.80
2023-05-19T19:47:27.953Z,47.80
2023-05-19T19:49:55.947Z,47.90
2023-05-19T19:52:22.841Z,47.90
2023-05-19T19:54:49.802Z,47.90
2023-05-19T19:57:17.299Z,47.90
2023-05-19T19:59:44.528Z,47.90
2023-05-19T20:02:11.602Z,47.70
2023-05-19T20:04:38.727Z,47.70
2023-05-19T20:07:05.811Z,47.70
2023-05-19T20:09:32.750Z,47.70
2023-05-19T20:11:59.878Z,47.60
2023-05-19T20:14:26.902Z,47.50
2023-05-19T20:16:53.773Z,47.50
2023-05-19T20:19:21.061Z,47.50
2023-05-19T20:21:48.172Z,47.50
2023-05-19T20:24:15.047Z,47.60
2023-05-19T20:26:41.924Z,47.60
2023-05-19T20:29:08.756Z,47.60
2023-05-19T20:31:35.742Z,47.50
2023-05-19T20:34:02.708Z,47.60
2023-05-19T20:36:29.820Z,47.50
2023-05-19T20:38:56.686Z,47.70
2023-05-19T20:41:23.645Z,48.30
2023-05-19T20:43:50.875Z,47.60
2023-05-19T20:46:17.854Z,47.60
2023-05-19T20:48:44.920Z,47.60
2023-05-19T20:51:11.851Z,47.60
2023-05-19T20:53:38.855Z,47.70
2023-05-19T20:56:07.270Z,47.70
2023-05-19T20:58:34.165Z,47.80
2023-05-19T21:01:01.175Z,47.90
2023-05-19T21:03:28.666Z,48.10
2023-05-19T21:05:56.059Z,48.20
2023-05-19T21:08:23.311Z,48.20
2023-05-19T21:10:51.003Z,48.20
2023-05-19T21:13:18.598Z,48.30
2023-05-19T21:15:45.574Z,48.30
2023-05-19T21:18:12.617Z,48.40
2023-05-19T21:20:39.993Z,48.30
2023-05-19T21:23:06.868Z,48.30
2023-05-19T21:25:33.845Z,48.30
2023-05-19T21:28:01.038Z,48.30
2023-05-19T21:30:28.515Z,48.30
2023-05-19T21:32:55.545Z,48.20
2023-05-19T21:35:22.510Z,48.20
2023-05-19T21:37:49.393Z,48.30
2023-05-19T21:40:16.420Z,48.20
2023-05-19T21:42:43.337Z,48.20
2023-05-19T21:45:10.716Z,48.20
2023-05-19T21:47:37.613Z,48.30
2023-05-19T21:50:04.823Z,48.30
2023-05-19T21:52:31.823Z,48.20
2023-05-19T21:54:58.673Z,48.30
2023-05-19T21:57:25.620Z,48.40
2023-05-19T21:59:52.478Z,48.50
2023-05-19T22:02:19.335Z,48.60
2023-05-19T22:04:46.345Z,48.70
2023-05-19T22:07:13.240Z,48.70
2023-05-19T22:09:40.589Z,48.70
2023-05-19T22:12:07.925Z,48.80
2023-05-19T22:14:35.760Z,48.80
2023-05-19T22:17:02.735Z,48.80
2023-05-19T22:19:29.862Z,48.70
2023-05-19T22:22:09.613Z,48.80
2023-05-19T22:24:39.834Z,48.80
2023-05-19T22:27:08.192Z,48.80
2023-05-19T22:29:38.334Z,48.80
2023-05-19T22:32:11.792Z,48.80
2023-05-19T22:34:39.208Z,48.80
2023-05-19T22:37:06.377Z,48.80
2023-05-19T22:39:33.338Z,48.80
2023-05-19T22:42:00.183Z,48.70
2023-05-19T22:44:27.126Z,48.70
2023-05-19T22:46:54.036Z,48.70
2023-05-19T22:49:22.948Z,48.70
2023-05-19T22:51:50.020Z,48.70
2023-05-19T22:54:17.047Z,48.80
2023-05-19T22:56:46.383Z,48.70
2023-05-19T22:59:13.482Z,48.70
2023-05-19T23:01:40.665Z,48.70
2023-05-19T23:04:07.619Z,48.80
2023-05-19T23:06:34.508Z,48.80
2023-05-19T23:09:03.235Z,48.70
2023-05-19T23:11:30.364Z,48.70
2023-05-19T23:13:57.345Z,48.80
2023-05-19T23:16:24.291Z,48.70
2023-05-19T23:18:51.181Z,48.70
2023-05-19T23:21:18.184Z,48.60
2023-05-19T23:23:45.051Z,48.70
2023-05-19T23:26:13.486Z,48.70
2023-05-19T23:28:42.259Z,48.70
2023-05-19T23:31:09.526Z,48.70
2023-05-19T23:33:36.748Z,48.60
2023-05-19T23:36:08.073Z,48.60
2023-05-19T23:38:35.956Z,48.60
2023-05-19T23:41:03.475Z,48.60
2023-05-19T23:43:32.292Z,48.60
2023-05-19T23:45:59.702Z,48.50
2023-05-19T23:48:28.820Z,48.50
2023-05-19T23:50:55.762Z,48.50
2023-05-19T23:53:22.784Z,48.50
2023-05-19T23:55:49.729Z,48.50
2023-05-19T23:58:16.635Z,48.60
